Terminal Aerodrome Forecast
Issued by NWS Detroit/Pontiac, MI

Home | Current Version | Previous Version | Text Only | Print | Product List | Glossary On
Versions: 1 2 3 4 5 6 7 8 9 10 11 12 13 14 15 16 17 18 19 20
687
FTUS43 KDTX 172320
TAFFNT
TAF
KFNT 172320Z 1800/1824 26010KT 1SM -DZ BR OVC002
      TEMPO 1800/1802 1/2SM FG VV002
     FM180400 26006KT 3SM -RA BR OVC006
     FM181400 26006KT 5SM BR OVC015
     FM182200 23005KT P6SM BKN015 OVC025=

USA.gov is the U.S. government's official web portal to all federal, state and local government web resources and services.